Time;durP1;ratioP1;P1;durP2;ratioP2;P2;SDS_P1;SDS_P2;PMS_P1;PMS_P2;Temp;Humidity;BMP_temperature;BMP_pressure;BME280_temperature;BME280_humidity;BME280_pressure;Samples;Min_cycle;Max_cycle;Signal;HPM_P1;HPM_P2
2024/04/12 00:02:26;;;;;;;5.35;2.80;;;;;;;;;;5474822;26;20001;-77
2024/04/12 00:05:12;;;;;;;6.78;2.60;;;;;;;;;;5475230;26;20055;-77
2024/04/12 00:08:04;;;;;;;8.60;2.88;;;;;;;;;;5487545;26;20013;-77
2024/04/12 00:10:55;;;;;;;6.78;2.92;;;;;;;;;;5513299;26;20012;-77
2024/04/12 00:13:41;;;;;;;6.40;3.10;;;;;;;;;;5482765;26;19997;-77
2024/04/12 00:16:26;;;;;;;7.72;3.10;;;;;;;;;;5487952;26;20009;-77
2024/04/12 00:19:12;;;;;;;9.70;2.63;;;;;;;;;;5495621;26;20085;-76
2024/04/12 00:21:59;;;;;;;12.48;3.20;;;;;;;;;;5512580;26;20009;-76
2024/04/12 00:24:45;;;;;;;8.82;2.78;;;;;;;;;;5516642;26;20009;-76
2024/04/12 00:27:33;;;;;;;9.27;3.22;;;;;;;;;;5491010;26;20016;-76
2024/04/12 00:30:37;;;;;;;4.70;2.60;;;;;;;;;;5493428;26;20008;-76
2024/04/12 00:33:23;;;;;;;6.32;2.88;;;;;;;;;;5517213;26;20455;-75
2024/04/12 00:36:11;;;;;;;7.00;2.75;;;;;;;;;;5517389;26;20002;-78
2024/04/12 00:38:56;;;;;;;10.60;3.72;;;;;;;;;;5516607;26;20348;-78
2024/04/12 00:41:42;;;;;;;6.00;2.38;;;;;;;;;;5514323;26;20001;-77
2024/04/12 00:44:29;;;;;;;8.85;2.95;;;;;;;;;;5517148;26;20056;-78
2024/04/12 00:47:20;;;;;;;7.85;2.30;;;;;;;;;;5517054;26;20447;-79
2024/04/12 00:50:06;;;;;;;7.22;2.88;;;;;;;;;;5516884;26;20009;-77
2024/04/12 00:52:52;;;;;;;5.97;2.45;;;;;;;;;;5479764;26;20015;-77
2024/04/12 00:55:41;;;;;;;9.10;3.28;;;;;;;;;;5465154;26;20005;-76
2024/04/12 00:58:32;;;;;;;7.53;2.85;;;;;;;;;;5490442;26;20029;-77
2024/04/12 01:01:17;;;;;;;7.10;2.58;;;;;;;;;;5464322;26;20043;-76
2024/04/12 01:04:02;;;;;;;5.53;3.03;;;;;;;;;;5516448;26;20049;-77
2024/04/12 01:06:48;;;;;;;5.90;2.65;;;;;;;;;;5512384;26;20341;-77
2024/04/12 01:09:35;;;;;;;7.45;3.15;;;;;;;;;;5490715;26;20012;-77
2024/04/12 01:12:21;;;;;;;5.93;2.63;;;;;;;;;;5490809;26;20001;-76
2024/04/12 01:15:07;;;;;;;6.15;2.67;;;;;;;;;;5490743;26;20005;-79
2024/04/12 01:17:52;;;;;;;8.23;3.00;;;;;;;;;;5516508;26;20010;-76
2024/04/12 01:20:39;;;;;;;9.75;3.67;;;;;;;;;;5490414;26;19997;-76
2024/04/12 01:23:27;;;;;;;8.55;2.80;;;;;;;;;;5490651;26;20033;-76
2024/04/12 01:26:14;;;;;;;6.32;2.78;;;;;;;;;;5490304;26;20008;-76
2024/04/12 01:28:59;;;;;;;14.93;3.35;;;;;;;;;;5490700;26;20001;-76
2024/04/12 01:31:44;;;;;;;9.80;3.88;;;;;;;;;;5490405;26;20003;-77
2024/04/12 01:34:30;;;;;;;7.22;2.97;;;;;;;;;;5490216;26;20001;-77
2024/04/12 01:37:15;;;;;;;7.35;2.90;;;;;;;;;;5490371;26;20096;-76
2024/04/12 01:40:02;;;;;;;19.63;3.53;;;;;;;;;;5488368;26;19998;-76
2024/04/12 01:42:48;;;;;;;6.28;3.35;;;;;;;;;;5488056;26;20012;-76
2024/04/12 01:45:33;;;;;;;6.40;2.80;;;;;;;;;;5489826;26;19997;-76
2024/04/12 01:48:19;;;;;;;4.88;2.83;;;;;;;;;;5479323;26;20005;-77
2024/04/12 01:51:05;;;;;;;7.10;3.03;;;;;;;;;;5502319;26;20001;-78
2024/04/12 01:53:54;;;;;;;7.18;3.03;;;;;;;;;;5507928;26;20005;-75
2024/04/12 01:56:41;;;;;;;7.13;2.85;;;;;;;;;;5498469;26;20008;-76
2024/04/12 01:59:26;;;;;;;4.63;2.50;;;;;;;;;;5512586;26;20377;-77
2024/04/12 02:02:12;;;;;;;8.10;3.67;;;;;;;;;;5513013;26;19998;-77
2024/04/12 02:04:57;;;;;;;5.15;2.33;;;;;;;;;;5493606;26;20033;-78
2024/04/12 02:07:44;;;;;;;4.20;2.42;;;;;;;;;;5497094;26;20017;-77
2024/04/12 02:10:29;;;;;;;8.30;3.83;;;;;;;;;;5500129;26;20343;-77
2024/04/12 02:13:17;;;;;;;9.75;3.10;;;;;;;;;;5519642;26;20550;-77
2024/04/12 02:16:04;;;;;;;5.55;2.97;;;;;;;;;;5519561;26;20336;-78
2024/04/12 02:18:50;;;;;;;7.60;2.88;;;;;;;;;;5520405;26;19997;-77
2024/04/12 02:21:38;;;;;;;5.60;2.67;;;;;;;;;;5507287;26;20038;-78
2024/04/12 02:24:23;;;;;;;9.60;2.83;;;;;;;;;;5494539;26;20002;-78
2024/04/12 02:27:08;;;;;;;7.10;2.75;;;;;;;;;;5484938;26;20002;-78
2024/04/12 02:29:55;;;;;;;6.40;2.80;;;;;;;;;;5482977;26;20566;-78
2024/04/12 02:32:40;;;;;;;3.63;2.50;;;;;;;;;;5483393;26;20014;-78
2024/04/12 02:35:25;;;;;;;8.63;3.03;;;;;;;;;;5483080;26;20002;-78
2024/04/12 02:38:14;;;;;;;6.07;2.78;;;;;;;;;;5544934;25;20048;-77
2024/04/12 02:40:59;;;;;;;9.80;3.08;;;;;;;;;;5519921;26;20008;-77
2024/04/12 02:43:47;;;;;;;6.97;2.85;;;;;;;;;;5516285;26;20074;-76
2024/04/12 02:46:32;;;;;;;6.28;2.70;;;;;;;;;;5472601;26;20069;-76
2024/04/12 02:49:19;;;;;;;4.93;2.67;;;;;;;;;;5519249;26;20029;-76
2024/04/12 02:52:04;;;;;;;5.38;2.75;;;;;;;;;;5520125;26;19997;-76
2024/04/12 02:54:51;;;;;;;5.75;2.85;;;;;;;;;;5509682;26;20043;-76
2024/04/12 02:57:36;;;;;;;6.82;3.08;;;;;;;;;;5516197;26;19997;-76
2024/04/12 03:00:22;;;;;;;7.50;3.00;;;;;;;;;;5507937;26;19993;-76
2024/04/12 03:03:07;;;;;;;6.22;2.45;;;;;;;;;;5509253;26;20012;-75
2024/04/12 03:06:00;;;;;;;8.23;2.72;;;;;;;;;;5514868;26;20017;-77
2024/04/12 03:08:49;;;;;;;5.43;2.90;;;;;;;;;;5488230;26;20009;-77
2024/04/12 03:11:34;;;;;;;9.73;2.83;;;;;;;;;;5488721;26;19998;-77
2024/04/12 03:14:22;;;;;;;7.32;2.50;;;;;;;;;;5489092;26;20008;-77
2024/04/12 03:17:07;;;;;;;6.00;3.05;;;;;;;;;;5496856;26;20001;-78
2024/04/12 03:19:54;;;;;;;7.40;3.00;;;;;;;;;;5514893;26;20263;-78
2024/04/12 03:22:39;;;;;;;11.35;3.22;;;;;;;;;;5514947;26;20030;-77
2024/04/12 03:25:24;;;;;;;5.82;2.90;;;;;;;;;;5511290;25;20007;-77
2024/04/12 03:28:10;;;;;;;7.22;3.10;;;;;;;;;;5511324;25;20009;-77
2024/04/12 03:30:55;;;;;;;9.23;3.88;;;;;;;;;;5467768;26;20067;-77
2024/04/12 03:33:44;;;;;;;5.43;2.70;;;;;;;;;;5517387;25;19996;-77
2024/04/12 03:42:08;;;;;;;6.20;2.78;;;;;;;;;;5504917;25;20017;-77
2024/04/12 03:44:53;;;;;;;9.35;3.17;;;;;;;;;;5488038;26;19997;-77
2024/04/12 03:47:44;;;;;;;7.72;2.33;;;;;;;;;;5521292;25;20005;-77
2024/04/12 03:50:30;;;;;;;5.28;2.60;;;;;;;;;;5525208;25;20015;-77
2024/04/12 03:53:15;;;;;;;6.20;2.60;;;;;;;;;;5525792;25;19997;-77
2024/04/12 03:56:03;;;;;;;5.85;2.90;;;;;;;;;;5518809;25;20041;-78
2024/04/12 03:59:00;;;;;;;7.72;3.65;;;;;;;;;;5514885;25;20002;-77
2024/04/12 04:01:46;;;;;;;5.20;3.20;;;;;;;;;;5491827;25;19997;-78
2024/04/12 04:04:37;;;;;;;5.88;2.95;;;;;;;;;;5460807;25;20093;-78
2024/04/12 04:07:22;;;;;;;5.10;2.72;;;;;;;;;;5491890;26;19999;-77
2024/04/12 04:10:13;;;;;;;9.52;2.55;;;;;;;;;;5492420;26;20002;-79
2024/04/12 04:13:03;;;;;;;7.60;2.83;;;;;;;;;;5503872;25;20015;-77
2024/04/12 04:15:55;;;;;;;5.57;2.80;;;;;;;;;;5491302;26;20009;-77
2024/04/12 04:18:41;;;;;;;8.43;4.28;;;;;;;;;;5504382;25;19997;-77
2024/04/12 04:21:26;;;;;;;4.93;2.95;;;;;;;;;;5503189;25;19993;-76
2024/04/12 04:24:11;;;;;;;7.50;2.97;;;;;;;;;;5525674;25;20012;-77
2024/04/12 04:26:57;;;;;;;5.88;2.92;;;;;;;;;;5507189;25;20000;-77
2024/04/12 04:29:45;;;;;;;4.90;2.67;;;;;;;;;;5493859;25;20345;-76
2024/04/12 04:32:30;;;;;;;6.28;2.78;;;;;;;;;;5493701;25;20388;-77
2024/04/12 04:35:15;;;;;;;4.93;2.83;;;;;;;;;;5491566;26;20001;-77
2024/04/12 04:38:01;;;;;;;10.52;3.20;;;;;;;;;;5493708;26;20013;-77
2024/04/12 04:40:46;;;;;;;7.60;3.10;;;;;;;;;;5490973;26;19997;-77
2024/04/12 04:43:32;;;;;;;9.73;3.08;;;;;;;;;;5491792;26;20321;-77
2024/04/12 04:46:27;;;;;;;8.07;3.35;;;;;;;;;;5510027;25;20000;-77
2024/04/12 04:49:12;;;;;;;8.73;3.03;;;;;;;;;;5528296;25;19997;-76
2024/04/12 04:52:00;;;;;;;6.15;3.25;;;;;;;;;;5520607;25;20007;-76
2024/04/12 04:54:46;;;;;;;6.80;2.63;;;;;;;;;;5454435;26;20030;-76
2024/04/12 04:57:35;;;;;;;10.10;3.10;;;;;;;;;;5480279;26;20736;-76
2024/04/12 05:00:24;;;;;;;9.95;3.30;;;;;;;;;;5480079;25;20012;-76
2024/04/12 05:03:09;;;;;;;6.05;3.15;;;;;;;;;;5480879;26;20026;-78
2024/04/12 05:05:54;;;;;;;7.75;4.00;;;;;;;;;;5490427;26;20020;-77
2024/04/12 05:08:42;;;;;;;5.15;2.80;;;;;;;;;;5491486;26;20012;-76
2024/04/12 05:11:31;;;;;;;6.18;3.00;;;;;;;;;;5506012;25;20076;-76
2024/04/12 05:17:21;;;;;;;5.88;3.28;;;;;;;;;;5491173;26;20005;-76
2024/04/12 05:20:14;;;;;;;16.60;4.40;;;;;;;;;;5493162;26;20020;-76
2024/04/12 05:23:00;;;;;;;11.10;3.50;;;;;;;;;;5491027;26;20476;-75
2024/04/12 05:25:49;;;;;;;7.63;3.58;;;;;;;;;;5467929;26;20009;-76
2024/04/12 05:28:35;;;;;;;11.80;4.72;;;;;;;;;;5418390;26;20015;-76
2024/04/12 05:31:21;;;;;;;8.30;3.85;;;;;;;;;;5477130;26;20002;-77
2024/04/12 05:34:06;;;;;;;12.85;4.10;;;;;;;;;;5490494;26;20008;-78
2024/04/12 05:36:55;;;;;;;9.90;3.50;;;;;;;;;;5490396;26;20005;-77
2024/04/12 05:39:41;;;;;;;7.53;3.88;;;;;;;;;;5473801;26;20086;-78
2024/04/12 05:42:30;;;;;;;8.15;3.40;;;;;;;;;;5483630;26;20010;-77
2024/04/12 05:45:19;;;;;;;12.13;3.95;;;;;;;;;;5487380;26;20475;-77
2024/04/12 05:48:12;;;;;;;10.13;3.67;;;;;;;;;;5479627;26;19998;-77
2024/04/12 05:50:58;;;;;;;8.50;3.20;;;;;;;;;;5479104;26;20043;-76
2024/04/12 05:53:43;;;;;;;5.80;2.95;;;;;;;;;;5479084;26;20071;-77
2024/04/12 05:56:29;;;;;;;6.93;3.13;;;;;;;;;;5472540;26;20008;-77
2024/04/12 05:59:14;;;;;;;6.05;3.08;;;;;;;;;;5468703;26;20002;-76
2024/04/12 06:02:01;;;;;;;12.15;3.33;;;;;;;;;;5465941;26;19997;-77
2024/04/12 06:04:47;;;;;;;7.97;3.42;;;;;;;;;;5464414;26;20035;-77
2024/04/12 06:07:37;;;;;;;7.55;3.67;;;;;;;;;;5471550;26;20455;-76
2024/04/12 06:10:25;;;;;;;10.13;4.63;;;;;;;;;;5467431;26;19998;-77
2024/04/12 06:13:11;;;;;;;6.18;3.38;;;;;;;;;;5462485;26;20013;-77
2024/04/12 06:15:56;;;;;;;11.10;5.88;;;;;;;;;;5465972;26;20022;-77
2024/04/12 06:18:43;;;;;;;13.05;5.60;;;;;;;;;;5490708;26;19998;-77
2024/04/12 06:21:30;;;;;;;7.75;3.17;;;;;;;;;;5487826;26;20519;-78
2024/04/12 06:24:16;;;;;;;7.18;3.45;;;;;;;;;;5462798;26;20048;-78
2024/04/12 06:27:02;;;;;;;9.75;3.97;;;;;;;;;;5505091;26;20009;-79
2024/04/12 06:29:47;;;;;;;10.63;3.42;;;;;;;;;;5488313;26;20111;-78
2024/04/12 06:32:33;;;;;;;7.90;3.97;;;;;;;;;;5505498;26;20065;-79
2024/04/12 06:35:28;;;;;;;8.07;3.65;;;;;;;;;;5509821;26;20073;-82
2024/04/12 06:38:17;;;;;;;10.13;4.07;;;;;;;;;;5491171;26;20001;-77
2024/04/12 06:41:14;;;;;;;10.02;3.40;;;;;;;;;;5501314;26;20069;-77
2024/04/12 06:44:00;;;;;;;12.27;4.18;;;;;;;;;;5499190;26;20020;-77
2024/04/12 06:46:51;;;;;;;7.20;3.60;;;;;;;;;;5508431;26;20009;-78
2024/04/12 06:49:44;;;;;;;11.20;4.13;;;;;;;;;;5499846;26;19997;-77
2024/04/12 06:52:34;;;;;;;12.82;3.85;;;;;;;;;;5455294;26;19993;-78
2024/04/12 06:55:30;;;;;;;10.63;3.72;;;;;;;;;;5505207;26;20008;-78
2024/04/12 06:58:18;;;;;;;9.40;3.90;;;;;;;;;;5499925;26;20001;-78
2024/04/12 07:01:05;;;;;;;7.18;3.45;;;;;;;;;;5481910;26;20252;-77
2024/04/12 07:03:52;;;;;;;11.73;3.88;;;;;;;;;;5487965;26;20001;-78
2024/04/12 07:06:37;;;;;;;7.18;3.50;;;;;;;;;;5482839;26;20032;-77
2024/04/12 07:09:22;;;;;;;10.52;4.00;;;;;;;;;;5497162;26;20412;-77
2024/04/12 07:12:08;;;;;;;12.30;4.28;;;;;;;;;;5492572;26;20016;-76
2024/04/12 07:14:56;;;;;;;9.73;3.65;;;;;;;;;;5485963;26;19994;-77
2024/04/12 07:17:47;;;;;;;7.60;3.60;;;;;;;;;;5494376;26;20013;-76
2024/04/12 07:20:38;;;;;;;10.32;3.20;;;;;;;;;;5504974;26;20058;-76
2024/04/12 07:23:23;;;;;;;11.95;3.60;;;;;;;;;;5494001;26;19998;-77
2024/04/12 07:26:14;;;;;;;10.15;3.60;;;;;;;;;;5495299;26;20029;-76
2024/04/12 07:29:01;;;;;;;8.27;2.95;;;;;;;;;;5485647;26;19998;-76
2024/04/12 07:31:52;;;;;;;11.52;3.15;;;;;;;;;;5490425;26;20448;-78
2024/04/12 07:34:48;;;;;;;14.57;3.42;;;;;;;;;;5468520;26;20005;-77
2024/04/12 07:37:36;;;;;;;6.97;3.42;;;;;;;;;;5499059;26;20008;-78
2024/04/12 07:40:24;;;;;;;7.18;3.38;;;;;;;;;;5489313;26;19997;-77
2024/04/12 07:43:11;;;;;;;7.93;3.50;;;;;;;;;;5504743;26;19998;-77
2024/04/12 07:45:57;;;;;;;8.10;3.85;;;;;;;;;;5492860;26;19998;-77
2024/04/12 07:48:42;;;;;;;10.07;3.75;;;;;;;;;;5488785;26;19997;-77
2024/04/12 07:51:30;;;;;;;7.65;3.30;;;;;;;;;;5492077;26;20009;-78
2024/04/12 07:54:16;;;;;;;8.65;3.67;;;;;;;;;;5491049;26;20002;-77
2024/04/12 07:57:07;;;;;;;8.70;3.17;;;;;;;;;;5498739;26;20016;-76
2024/04/12 07:59:55;;;;;;;12.98;4.43;;;;;;;;;;5491267;26;19993;-77
2024/04/12 08:02:45;;;;;;;13.02;3.88;;;;;;;;;;5495526;26;20137;-76
2024/04/12 08:05:30;;;;;;;12.02;4.57;;;;;;;;;;5488337;26;20459;-76
2024/04/12 08:08:15;;;;;;;11.65;4.47;;;;;;;;;;5480630;26;20046;-76
2024/04/12 08:11:32;;;;;;;8.95;4.50;;;;;;;;;;5493038;26;20008;-77
2024/04/12 08:14:20;;;;;;;15.40;4.47;;;;;;;;;;5490832;26;20397;-77
2024/04/12 08:17:14;;;;;;;11.45;4.57;;;;;;;;;;5493300;26;20001;-76
2024/04/12 08:20:13;;;;;;;7.78;4.20;;;;;;;;;;5502723;26;19997;-76
2024/04/12 08:22:58;;;;;;;12.68;4.70;;;;;;;;;;5502263;26;20448;-76
2024/04/12 08:25:48;;;;;;;9.45;3.95;;;;;;;;;;5487908;26;20001;-75
2024/04/12 08:28:33;;;;;;;11.35;4.45;;;;;;;;;;5495773;26;20013;-75
2024/04/12 08:31:18;;;;;;;9.05;4.53;;;;;;;;;;5492450;26;20500;-75
2024/04/12 08:34:04;;;;;;;10.02;4.97;;;;;;;;;;5496850;26;19998;-78
2024/04/12 08:36:49;;;;;;;12.07;4.00;;;;;;;;;;5492692;26;19998;-75
2024/04/12 08:39:43;;;;;;;8.93;5.05;;;;;;;;;;5491230;26;20424;-75
2024/04/12 08:42:28;;;;;;;13.45;3.78;;;;;;;;;;5498826;26;20009;-75
2024/04/12 08:45:17;;;;;;;9.63;4.63;;;;;;;;;;5507832;26;20383;-75
2024/04/12 08:48:04;;;;;;;7.97;4.07;;;;;;;;;;5502162;26;20535;-75
2024/04/12 08:51:01;;;;;;;8.73;3.95;;;;;;;;;;5505939;26;19998;-75
2024/04/12 08:53:56;;;;;;;7.95;4.20;;;;;;;;;;5506357;26;20003;-75
2024/04/12 08:56:46;;;;;;;9.90;4.05;;;;;;;;;;5496074;26;20008;-76
2024/04/12 08:59:33;;;;;;;11.73;4.25;;;;;;;;;;5507202;26;20460;-76
2024/04/12 09:02:24;;;;;;;5.40;3.42;;;;;;;;;;5504212;26;20008;-76
2024/04/12 09:05:13;;;;;;;10.65;4.18;;;;;;;;;;5509996;26;20012;-76
2024/04/12 09:07:58;;;;;;;6.28;3.97;;;;;;;;;;5518254;26;19994;-76
2024/04/12 09:10:44;;;;;;;7.80;3.30;;;;;;;;;;5512181;26;19998;-79
2024/04/12 09:13:30;;;;;;;8.95;4.00;;;;;;;;;;5505042;26;20344;-79
2024/04/12 09:16:19;;;;;;;7.20;3.58;;;;;;;;;;5503231;26;19998;-78
2024/04/12 09:19:13;;;;;;;9.13;3.88;;;;;;;;;;5490353;26;20041;-78
2024/04/12 09:22:02;;;;;;;8.90;4.65;;;;;;;;;;5511783;26;20078;-77
2024/04/12 09:24:55;;;;;;;7.07;4.18;;;;;;;;;;5492918;26;19997;-77
2024/04/12 09:27:44;;;;;;;6.68;3.22;;;;;;;;;;5489231;26;20013;-78
2024/04/12 09:33:32;;;;;;;10.38;3.58;;;;;;;;;;5491144;26;20007;-81
2024/04/12 09:36:38;;;;;;;10.38;4.50;;;;;;;;;;5490371;26;20448;-82
2024/04/12 09:39:24;;;;;;;11.65;3.55;;;;;;;;;;5513889;26;20033;-82
2024/04/12 09:42:09;;;;;;;11.63;4.55;;;;;;;;;;5496585;26;20460;-79
2024/04/12 09:45:00;;;;;;;9.27;4.43;;;;;;;;;;5496791;26;20073;-78
2024/04/12 10:38:09;;;;;;;11.38;4.00;;;;;;;;;;5500168;26;20037;-85
2024/04/12 10:40:55;;;;;;;8.48;4.10;;;;;;;;;;5435094;26;20005;-86
2024/04/12 10:43:43;;;;;;;9.65;4.68;;;;;;;;;;5461573;26;19998;-84
2024/04/12 10:46:28;;;;;;;12.75;4.30;;;;;;;;;;5498239;26;20011;-85
2024/04/12 10:49:14;;;;;;;8.18;4.22;;;;;;;;;;5490288;26;19997;-84
2024/04/12 10:52:00;;;;;;;12.50;4.88;;;;;;;;;;5490422;26;20012;-84
2024/04/12 10:54:48;;;;;;;8.50;4.00;;;;;;;;;;5489481;26;20127;-85
2024/04/12 10:57:33;;;;;;;12.73;4.97;;;;;;;;;;5505191;26;19993;-79
2024/04/12 11:00:27;;;;;;;7.75;3.72;;;;;;;;;;5501782;26;20069;-81
2024/04/12 11:03:23;;;;;;;12.85;4.05;;;;;;;;;;5479219;26;20006;-82
2024/04/12 11:06:18;;;;;;;8.23;3.63;;;;;;;;;;5490966;26;20070;-82
2024/04/12 11:09:06;;;;;;;10.13;4.40;;;;;;;;;;5489927;26;20009;-79
2024/04/12 11:11:55;;;;;;;11.57;4.95;;;;;;;;;;5483748;26;19997;-79
2024/04/12 11:14:50;;;;;;;10.30;4.00;;;;;;;;;;5495356;26;20324;-79
2024/04/12 11:33:39;;;;;;;9.35;4.28;;;;;;;;;;5476187;26;20002;-77
2024/04/12 11:36:25;;;;;;;9.82;4.80;;;;;;;;;;5484433;26;19998;-77
2024/04/12 11:39:17;;;;;;;9.75;4.78;;;;;;;;;;5430178;26;20001;-78
2024/04/12 11:42:03;;;;;;;12.40;5.03;;;;;;;;;;5452474;26;20005;-79
2024/04/12 11:44:53;;;;;;;12.95;5.20;;;;;;;;;;5447857;26;20008;-77
2024/04/12 11:47:38;;;;;;;8.82;4.35;;;;;;;;;;5463852;26;20460;-81
2024/04/12 11:50:26;;;;;;;7.78;4.32;;;;;;;;;;5445241;26;20025;-83
2024/04/12 11:53:12;;;;;;;10.83;5.00;;;;;;;;;;5469651;26;20030;-82
2024/04/12 11:55:59;;;;;;;10.80;6.03;;;;;;;;;;5459035;26;20271;-82
2024/04/12 11:58:45;;;;;;;11.33;4.87;;;;;;;;;;5448318;26;20002;-83
2024/04/12 12:01:31;;;;;;;12.30;5.15;;;;;;;;;;5451572;26;20231;-83
2024/04/12 12:04:19;;;;;;;12.18;4.88;;;;;;;;;;5454854;26;19998;-83
2024/04/12 12:07:04;;;;;;;11.20;4.50;;;;;;;;;;5462045;26;20012;-83
2024/04/12 12:09:50;;;;;;;9.75;4.32;;;;;;;;;;5478204;26;19993;-82
2024/04/12 12:12:37;;;;;;;14.07;5.75;;;;;;;;;;5478365;26;19997;-83
2024/04/12 12:15:23;;;;;;;8.55;5.63;;;;;;;;;;5458583;26;20006;-82
2024/04/12 12:18:08;;;;;;;8.98;4.43;;;;;;;;;;5465750;26;20001;-80
2024/04/12 12:20:55;;;;;;;13.32;4.38;;;;;;;;;;5455052;26;20448;-82
2024/04/12 12:23:41;;;;;;;11.95;4.10;;;;;;;;;;5456517;26;20013;-83
2024/04/12 12:26:26;;;;;;;10.35;3.75;;;;;;;;;;5480708;25;20010;-82
2024/04/12 12:29:15;;;;;;;12.23;5.75;;;;;;;;;;5476374;25;20001;-82
2024/04/12 12:32:01;;;;;;;10.73;5.03;;;;;;;;;;5458474;26;20627;-82
2024/04/12 12:34:47;;;;;;;12.70;5.03;;;;;;;;;;5478596;26;20033;-82
2024/04/12 12:37:35;;;;;;;9.48;4.32;;;;;;;;;;5480885;25;20065;-81
2024/04/12 12:40:21;;;;;;;9.60;5.38;;;;;;;;;;5475949;26;20004;-83
2024/04/12 12:43:12;;;;;;;10.88;5.10;;;;;;;;;;5468483;26;20016;-82
2024/04/12 12:46:23;;;;;;;10.73;4.90;;;;;;;;;;5492346;25;20064;-82
2024/04/12 12:52:32;;;;;;;12.63;4.80;;;;;;;;;;5480111;26;20441;-81
2024/04/12 12:55:22;;;;;;;13.35;5.45;;;;;;;;;;5462360;25;20010;-80
2024/04/12 12:58:11;;;;;;;10.35;4.82;;;;;;;;;;5490573;26;20455;-80
2024/04/12 13:00:59;;;;;;;11.63;5.53;;;;;;;;;;5490370;26;20328;-81
2024/04/12 13:03:45;;;;;;;13.63;5.85;;;;;;;;;;5470143;26;20385;-81
2024/04/12 13:06:34;;;;;;;10.82;5.70;;;;;;;;;;5453818;26;19994;-82
2024/04/12 13:09:19;;;;;;;12.45;7.35;;;;;;;;;;5451950;26;20002;-81
2024/04/12 13:12:09;;;;;;;14.30;7.05;;;;;;;;;;5450687;26;20060;-81
2024/04/12 13:14:57;;;;;;;10.52;5.00;;;;;;;;;;5454211;26;20026;-83
2024/04/12 13:17:43;;;;;;;15.45;6.10;;;;;;;;;;5453553;26;20045;-81
2024/04/12 13:20:35;;;;;;;13.48;6.32;;;;;;;;;;5453581;26;20028;-80
2024/04/12 13:23:25;;;;;;;11.63;5.97;;;;;;;;;;5478490;25;20025;-81
2024/04/12 13:26:22;;;;;;;13.68;5.82;;;;;;;;;;5489868;26;20404;-80
2024/04/12 13:29:10;;;;;;;12.38;6.93;;;;;;;;;;5490504;26;20001;-81
2024/04/12 13:31:57;;;;;;;13.45;6.25;;;;;;;;;;5487199;26;20005;-80
2024/04/12 13:34:45;;;;;;;12.90;6.60;;;;;;;;;;5490285;26;20006;-82
2024/04/12 13:37:31;;;;;;;9.85;5.28;;;;;;;;;;5490644;26;20030;-78
2024/04/12 13:40:19;;;;;;;11.27;5.40;;;;;;;;;;5480969;26;20012;-78
2024/04/12 13:43:05;;;;;;;11.00;5.82;;;;;;;;;;5490014;26;20012;-77
2024/04/12 13:52:00;;;;;;;12.65;4.95;;;;;;;;;;5453365;26;19998;-81
2024/04/12 13:54:50;;;;;;;10.15;4.82;;;;;;;;;;5479648;26;20005;-81
2024/04/12 13:57:38;;;;;;;9.77;5.18;;;;;;;;;;5490239;26;20001;-81
2024/04/12 14:00:30;;;;;;;11.80;4.80;;;;;;;;;;5478913;26;20023;-81
2024/04/12 14:03:21;;;;;;;8.73;3.78;;;;;;;;;;5453420;26;20005;-83
2024/04/12 14:06:07;;;;;;;9.10;4.63;;;;;;;;;;5451862;26;20026;-80
2024/04/12 14:08:52;;;;;;;11.20;3.63;;;;;;;;;;5478123;26;20002;-78
2024/04/12 14:11:38;;;;;;;9.25;3.95;;;;;;;;;;5482445;26;20005;-83
2024/04/12 14:14:23;;;;;;;7.38;3.20;;;;;;;;;;5476899;26;20346;-81
2024/04/12 14:17:12;;;;;;;9.45;3.35;;;;;;;;;;5454115;26;20013;-79
2024/04/12 14:19:59;;;;;;;10.77;3.07;;;;;;;;;;5453780;26;20026;-77
2024/04/12 14:22:44;;;;;;;9.20;3.38;;;;;;;;;;5453750;26;19998;-80
2024/04/12 14:25:30;;;;;;;6.35;2.97;;;;;;;;;;5451061;26;20488;-85
2024/04/12 14:28:16;;;;;;;12.00;4.70;;;;;;;;;;5478683;26;20005;-84
2024/04/12 14:31:02;;;;;;;6.20;2.92;;;;;;;;;;5477803;26;20009;-85
2024/04/12 14:33:50;;;;;;;6.82;3.10;;;;;;;;;;5473809;26;20460;-85
2024/04/12 14:36:35;;;;;;;9.60;3.30;;;;;;;;;;5478298;26;20030;-84
2024/04/12 14:39:28;;;;;;;7.50;3.03;;;;;;;;;;5477765;26;19998;-85
2024/04/12 14:42:15;;;;;;;13.23;3.80;;;;;;;;;;5478210;26;20214;-84
2024/04/12 14:45:06;;;;;;;9.50;3.28;;;;;;;;;;5477650;26;19994;-83
2024/04/12 14:47:51;;;;;;;6.85;3.15;;;;;;;;;;5478171;26;20010;-84
2024/04/12 14:50:36;;;;;;;8.98;3.25;;;;;;;;;;5478022;26;20013;-84
2024/04/12 14:53:22;;;;;;;8.85;3.08;;;;;;;;;;5477734;26;20002;-84
2024/04/12 14:56:07;;;;;;;9.25;2.53;;;;;;;;;;5459982;26;20017;-85
2024/04/12 14:58:57;;;;;;;7.43;2.30;;;;;;;;;;5433399;26;20030;-85
2024/04/12 15:01:42;;;;;;;;;;;;;;;;;;5441890;26;20010;-85
2024/04/12 15:53:18;;;;;;;8.38;2.78;;;;;;;;;;5487447;26;20397;-84
2024/04/12 16:11:05;;;;;;;7.68;2.42;;;;;;;;;;5480210;26;20030;-83
2024/04/12 16:13:50;;;;;;;8.15;2.45;;;;;;;;;;5472850;26;20005;-83
2024/04/12 16:16:35;;;;;;;5.88;2.35;;;;;;;;;;5491466;26;20010;-83
2024/04/12 16:19:21;;;;;;;8.05;2.20;;;;;;;;;;5490922;26;20007;-83
2024/04/12 16:22:06;;;;;;;5.75;2.25;;;;;;;;;;5491521;26;20029;-84
2024/04/12 16:24:51;;;;;;;5.90;2.00;;;;;;;;;;5480620;26;20005;-83
2024/04/12 16:27:36;;;;;;;6.57;2.10;;;;;;;;;;5444304;26;19999;-83
2024/04/12 16:30:22;;;;;;;9.13;2.97;;;;;;;;;;5443798;26;20021;-83
2024/04/12 16:33:07;;;;;;;6.30;2.03;;;;;;;;;;5444324;26;20042;-83
2024/04/12 16:35:52;;;;;;;5.75;2.42;;;;;;;;;;5443671;26;20021;-83
2024/04/12 16:38:38;;;;;;;4.88;2.25;;;;;;;;;;5465201;26;20097;-83
2024/04/12 16:41:23;;;;;;;7.57;2.40;;;;;;;;;;5454305;26;20013;-83
2024/04/12 16:44:13;;;;;;;7.82;2.22;;;;;;;;;;5480206;26;20074;-84
2024/04/12 16:46:58;;;;;;;10.15;2.90;;;;;;;;;;5479233;26;20021;-83
2024/04/12 16:49:44;;;;;;;10.20;2.97;;;;;;;;;;5445594;26;20009;-83
2024/04/12 16:52:29;;;;;;;5.80;2.65;;;;;;;;;;5443653;26;20005;-82
2024/04/12 16:55:14;;;;;;;4.18;2.03;;;;;;;;;;5443122;26;20117;-82
2024/04/12 16:58:04;;;;;;;10.38;2.20;;;;;;;;;;5443257;26;19999;-83
2024/04/12 17:00:49;;;;;;;7.13;2.13;;;;;;;;;;5443319;26;20035;-83
2024/04/12 17:03:34;;;;;;;5.07;1.90;;;;;;;;;;5446269;26;20009;-83
2024/04/12 17:06:20;;;;;;;6.10;2.20;;;;;;;;;;5477660;26;20067;-82
2024/04/12 17:09:09;;;;;;;4.85;2.53;;;;;;;;;;5454327;26;20003;-81
2024/04/12 17:11:54;;;;;;;10.00;2.85;;;;;;;;;;5479773;26;20414;-81
2024/04/12 17:14:39;;;;;;;7.13;2.28;;;;;;;;;;5478748;26;20526;-81
2024/04/12 17:17:24;;;;;;;4.95;1.85;;;;;;;;;;5480065;26;20345;-85
2024/04/12 17:20:10;;;;;;;6.28;2.45;;;;;;;;;;5481603;26;20081;-85
2024/04/12 17:22:55;;;;;;;5.88;1.90;;;;;;;;;;5482916;26;20047;-84
2024/04/12 17:25:40;;;;;;;4.35;2.30;;;;;;;;;;5479032;26;20009;-85
2024/04/12 17:28:25;;;;;;;6.28;2.15;;;;;;;;;;5479160;26;20435;-85
2024/04/12 17:31:10;;;;;;;7.25;2.08;;;;;;;;;;5483690;26;19998;-85
2024/04/12 17:33:58;;;;;;;8.43;3.08;;;;;;;;;;5480610;26;20026;-85
2024/04/12 17:36:45;;;;;;;5.97;2.47;;;;;;;;;;5478727;26;20013;-84
2024/04/12 17:39:30;;;;;;;5.60;2.42;;;;;;;;;;5456887;26;20010;-85
2024/04/12 17:42:16;;;;;;;7.22;2.30;;;;;;;;;;5479291;26;20002;-83
2024/04/12 17:45:03;;;;;;;6.95;2.35;;;;;;;;;;5467250;26;20002;-84
2024/04/12 17:47:49;;;;;;;5.10;2.30;;;;;;;;;;5442867;26;20076;-84
2024/04/12 17:50:35;;;;;;;7.15;2.58;;;;;;;;;;5442805;26;20009;-83
2024/04/12 17:53:20;;;;;;;13.10;4.28;;;;;;;;;;5442349;26;20003;-84
2024/04/12 17:56:06;;;;;;;11.68;5.82;;;;;;;;;;5449163;26;20006;-84
2024/04/12 17:58:51;;;;;;;11.25;3.75;;;;;;;;;;5444933;26;20003;-84
2024/04/12 18:01:39;;;;;;;5.70;2.55;;;;;;;;;;5449724;26;20071;-84
2024/04/12 18:04:24;;;;;;;8.70;3.03;;;;;;;;;;5442329;26;19999;-84
2024/04/12 18:07:09;;;;;;;5.80;3.17;;;;;;;;;;5442667;26;19998;-83
2024/04/12 18:09:55;;;;;;;9.75;2.95;;;;;;;;;;5442194;26;19999;-84
2024/04/12 18:12:40;;;;;;;6.15;3.22;;;;;;;;;;5442349;26;20021;-84
2024/04/12 18:15:27;;;;;;;5.75;3.08;;;;;;;;;;5448844;26;19999;-84
2024/04/12 18:18:12;;;;;;;9.20;3.35;;;;;;;;;;5422707;26;20003;-84
2024/04/12 18:21:05;;;;;;;7.63;3.42;;;;;;;;;;5447377;26;20003;-84
2024/04/12 18:23:51;;;;;;;7.13;3.13;;;;;;;;;;5452099;26;20013;-84
2024/04/12 18:26:36;;;;;;;10.27;3.70;;;;;;;;;;5480256;26;20430;-83
2024/04/12 18:29:21;;;;;;;8.45;3.58;;;;;;;;;;5452214;26;20458;-83
2024/04/12 18:32:08;;;;;;;6.45;3.22;;;;;;;;;;5447112;26;20009;-83
2024/04/12 18:34:54;;;;;;;6.53;2.67;;;;;;;;;;5442839;26;19998;-84
2024/04/12 18:46:49;;;;;;;9.10;4.00;;;;;;;;;;5438847;26;20007;-83
2024/04/12 18:49:35;;;;;;;7.53;3.75;;;;;;;;;;5442228;26;19999;-82
2024/04/12 18:52:21;;;;;;;13.88;5.22;;;;;;;;;;5465731;26;20005;-82
2024/04/12 18:55:06;;;;;;;12.02;5.95;;;;;;;;;;5477931;26;19998;-82
2024/04/12 18:57:51;;;;;;;15.32;6.60;;;;;;;;;;5476568;26;20010;-83
2024/04/12 19:00:37;;;;;;;11.07;5.68;;;;;;;;;;5477291;26;20008;-82
2024/04/12 19:03:22;;;;;;;14.85;5.82;;;;;;;;;;5477786;26;20394;-82
2024/04/12 19:06:10;;;;;;;7.57;4.05;;;;;;;;;;5477425;26;20013;-82
2024/04/12 19:08:56;;;;;;;10.95;3.58;;;;;;;;;;5477284;26;20005;-83
2024/04/12 19:11:42;;;;;;;12.13;3.47;;;;;;;;;;5477509;26;19998;-82
2024/04/12 19:14:27;;;;;;;8.88;4.18;;;;;;;;;;5477460;26;19994;-82
2024/04/12 19:17:13;;;;;;;13.32;4.63;;;;;;;;;;5477726;26;20013;-83
2024/04/12 19:19:58;;;;;;;9.63;3.10;;;;;;;;;;5477653;26;20089;-83